createdAt,value
2018-09-29T00:00:47.165Z,89.10
2018-09-29T00:03:18.344Z,89.60
2018-09-29T00:05:49.480Z,89.50
2018-09-29T00:08:19.863Z,89.50
2018-09-29T00:10:51.000Z,89.40
2018-09-29T00:13:21.419Z,89.40
2018-09-29T00:15:51.800Z,88.90
2018-09-29T00:18:22.185Z,89.80
2018-09-29T00:20:53.355Z,89.00
2018-09-29T00:23:23.749Z,88.90
2018-09-29T00:25:54.141Z,90.00
2018-09-29T00:28:31.875Z,88.70
2018-09-29T00:31:02.291Z,88.10
2018-09-29T00:33:32.693Z,87.90
2018-09-29T00:36:03.093Z,88.20
2018-09-29T00:38:33.488Z,88.10
2018-09-29T00:41:04.586Z,85.90
2018-09-29T00:43:38.070Z,85.80
2018-09-29T00:46:08.401Z,86.10
2018-09-29T00:48:38.794Z,87.80
2018-09-29T00:51:09.973Z,88.50
2018-09-29T00:53:40.370Z,88.50
2018-09-29T00:56:11.526Z,87.60
2018-09-29T00:58:41.922Z,87.60
2018-09-29T01:01:12.308Z,88.10
2018-09-29T01:03:50.019Z,87.70
2018-09-29T01:06:20.399Z,88.00
2018-09-29T01:08:50.775Z,89.00
2018-09-29T01:11:21.935Z,88.60
2018-09-29T01:13:52.330Z,89.10
2018-09-29T01:16:22.719Z,88.80
2018-09-29T01:18:53.126Z,88.30
2018-09-29T01:24:09.043Z,88.50
2018-09-29T01:26:40.212Z,89.40
2018-09-29T01:29:10.539Z,89.40
2018-09-29T01:31:40.964Z,89.40
2018-09-29T01:34:11.347Z,89.60
2018-09-29T01:36:41.666Z,90.00
2018-09-29T01:39:12.074Z,90.20
2018-09-29T01:41:46.545Z,89.20
2018-09-29T01:44:17.726Z,90.00
2018-09-29T01:46:50.168Z,90.00
2018-09-29T01:49:21.331Z,89.40
2018-09-29T01:51:51.733Z,89.20
2018-09-29T01:54:22.896Z,89.80
2018-09-29T01:56:55.315Z,89.70
2018-09-29T01:59:25.710Z,89.60
2018-09-29T02:01:56.108Z,90.00
2018-09-29T02:04:27.443Z,90.90
2018-09-29T02:06:58.614Z,91.20
2018-09-29T02:09:28.997Z,91.00
2018-09-29T02:11:59.388Z,90.50
2018-09-29T02:14:33.886Z,90.70
2018-09-29T02:17:04.276Z,90.20
2018-09-29T02:19:34.600Z,90.90
2018-09-29T02:22:05.001Z,90.70
2018-09-29T02:24:35.404Z,90.50
2018-09-29T02:27:05.779Z,90.40
2018-09-29T02:29:36.180Z,90.30
2018-09-29T02:32:10.654Z,90.30
2018-09-29T02:34:41.811Z,90.60
2018-09-29T02:37:12.188Z,90.50
2018-09-29T02:39:42.576Z,91.00
2018-09-29T02:42:13.191Z,90.80
2018-09-29T02:44:43.572Z,90.90
2018-09-29T02:47:13.964Z,90.40
2018-09-29T02:49:44.383Z,90.60
2018-09-29T02:52:14.763Z,90.80
2018-09-29T02:54:45.148Z,90.70
2018-09-29T02:57:16.582Z,91.00
2018-09-29T02:59:46.975Z,90.90
2018-09-29T03:02:17.360Z,90.50
2018-09-29T03:04:52.866Z,90.20
2018-09-29T03:07:24.014Z,90.30
2018-09-29T03:09:59.830Z,89.40
2018-09-29T03:12:30.209Z,89.30
2018-09-29T03:15:00.603Z,89.50
2018-09-29T03:17:32.005Z,90.10
2018-09-29T03:20:02.398Z,90.10
2018-09-29T03:22:33.556Z,89.90
2018-09-29T03:25:03.970Z,90.20
2018-09-29T03:27:35.061Z,90.30
2018-09-29T03:30:05.472Z,90.30
2018-09-29T03:32:36.875Z,90.30
2018-09-29T03:35:07.259Z,90.20
2018-09-29T03:37:37.657Z,90.00
2018-09-29T03:40:08.041Z,90.00
2018-09-29T03:42:38.438Z,90.40
2018-09-29T03:45:14.972Z,90.20
2018-09-29T03:47:45.363Z,90.00
2018-09-29T03:50:15.766Z,90.40
2018-09-29T03:52:50.242Z,90.50
2018-09-29T03:55:21.401Z,90.10
2018-09-29T03:57:51.795Z,90.10
2018-09-29T04:00:22.199Z,90.00
2018-09-29T04:02:52.584Z,90.10
2018-09-29T04:05:22.977Z,89.70
2018-09-29T04:07:54.436Z,90.40
2018-09-29T04:10:24.806Z,90.30
2018-09-29T04:12:59.295Z,90.30
2018-09-29T04:15:30.475Z,90.50
2018-09-29T04:18:04.959Z,90.50
2018-09-29T04:20:36.142Z,90.30
2018-09-29T04:23:06.527Z,90.30
2018-09-29T04:25:37.675Z,90.30
2018-09-29T04:28:08.776Z,90.30
2018-09-29T04:30:39.158Z,90.30
2018-09-29T04:33:09.557Z,90.40
2018-09-29T04:35:39.948Z,90.30
2018-09-29T04:38:30.734Z,90.30
2018-09-29T04:41:01.138Z,90.50
2018-09-29T04:43:31.538Z,90.30
2018-09-29T04:46:01.957Z,90.60
2018-09-29T04:48:32.285Z,90.80
2018-09-29T04:51:02.671Z,91.00
2018-09-29T04:53:33.064Z,91.30
2018-09-29T04:56:03.467Z,91.50
2018-09-29T04:58:33.865Z,91.40
2018-09-29T05:01:08.352Z,91.40
2018-09-29T05:03:38.752Z,91.80
2018-09-29T05:06:09.149Z,91.60
2018-09-29T05:08:39.545Z,91.40
2018-09-29T05:11:09.939Z,91.30
2018-09-29T05:13:41.020Z,90.80
2018-09-29T05:16:11.405Z,90.80
2018-09-29T05:18:41.752Z,90.50
2018-09-29T05:21:12.903Z,91.00
2018-09-29T05:23:43.281Z,91.00
2018-09-29T05:26:13.675Z,91.20
2018-09-29T05:28:46.114Z,90.60
2018-09-29T05:31:17.268Z,91.00
2018-09-29T05:33:47.678Z,90.90
2018-09-29T05:36:18.079Z,90.80
2018-09-29T05:38:48.463Z,90.30
2018-09-29T05:44:03.631Z,90.30
2018-09-29T05:46:34.796Z,90.40
2018-09-29T05:49:05.901Z,90.40
2018-09-29T05:51:36.311Z,90.50
2018-09-29T05:54:26.053Z,90.20
2018-09-29T05:56:56.443Z,90.50
2018-09-29T05:59:27.587Z,90.30
2018-09-29T06:01:58.775Z,90.40
2018-09-29T06:04:33.262Z,90.40
2018-09-29T06:07:04.548Z,89.30
2018-09-29T06:09:35.867Z,89.20
2018-09-29T06:12:07.189Z,88.20
2018-09-29T06:14:37.579Z,88.10
2018-09-29T06:17:11.021Z,88.40
2018-09-29T06:19:42.189Z,87.60
2018-09-29T06:22:12.594Z,88.30
2018-09-29T06:24:43.742Z,87.30
2018-09-29T06:27:15.696Z,88.60
2018-09-29T06:29:46.095Z,88.60
2018-09-29T06:32:16.489Z,89.00
2018-09-29T06:34:46.873Z,88.50
2018-09-29T06:37:17.274Z,88.60
2018-09-29T06:39:47.673Z,88.10
2018-09-29T06:42:19.094Z,89.00
2018-09-29T06:44:50.205Z,88.80
2018-09-29T06:47:20.585Z,88.70
2018-09-29T06:49:50.977Z,87.40
2018-09-29T06:52:21.376Z,86.80
2018-09-29T06:54:51.755Z,86.80
2018-09-29T06:57:22.137Z,87.70
2018-09-29T06:59:52.531Z,87.30
2018-09-29T07:02:28.023Z,86.30
2018-09-29T07:04:58.416Z,86.50
2018-09-29T07:07:50.218Z,86.20
2018-09-29T07:10:20.549Z,85.30
2018-09-29T07:12:50.969Z,85.80
2018-09-29T07:15:21.332Z,83.90
2018-09-29T07:17:51.669Z,85.20
2018-09-29T07:20:22.061Z,84.10
2018-09-29T07:22:56.471Z,83.20
2018-09-29T07:25:26.919Z,83.50
2018-09-29T07:27:58.013Z,82.80
2018-09-29T07:30:29.159Z,83.70
2018-09-29T07:33:00.321Z,82.50
2018-09-29T07:35:30.718Z,82.50
2018-09-29T07:38:01.104Z,82.90
2018-09-29T07:40:37.646Z,83.90
2018-09-29T07:43:07.969Z,81.90
2018-09-29T07:45:39.082Z,83.50
2018-09-29T07:48:09.406Z,83.50
2018-09-29T07:50:40.107Z,81.90
2018-09-29T07:53:29.870Z,81.40
2018-09-29T07:56:00.297Z,80.70
2018-09-29T07:58:30.649Z,81.20
2018-09-29T08:01:01.042Z,81.70
2018-09-29T08:03:31.452Z,80.70
2018-09-29T08:06:02.533Z,80.00
2018-09-29T08:08:37.216Z,79.90
2018-09-29T08:11:08.378Z,79.60
2018-09-29T08:13:38.766Z,79.60
2018-09-29T08:16:09.180Z,80.50
2018-09-29T08:18:39.568Z,78.50
2018-09-29T08:21:09.950Z,77.90
2018-09-29T08:23:40.363Z,76.70
2018-09-29T08:26:13.156Z,77.70
2018-09-29T08:28:43.563Z,77.00
2018-09-29T08:31:13.886Z,75.90
2018-09-29T08:33:45.310Z,76.30
2018-09-29T08:36:17.754Z,74.10
2018-09-29T08:38:49.596Z,74.90
2018-09-29T08:41:19.987Z,74.90
2018-09-29T08:44:10.771Z,75.00
2018-09-29T08:46:41.213Z,73.80
2018-09-29T08:49:14.433Z,75.40
2018-09-29T08:51:44.824Z,72.90
2018-09-29T08:54:18.289Z,74.30
2018-09-29T08:56:49.439Z,72.50
2018-09-29T08:59:20.617Z,71.80
2018-09-29T09:01:51.017Z,71.80
2018-09-29T09:04:21.341Z,71.60
2018-09-29T09:06:51.751Z,70.60
2018-09-29T09:09:22.979Z,70.10
2018-09-29T09:14:41.037Z,71.60
2018-09-29T09:17:11.432Z,70.10
2018-09-29T09:20:04.020Z,68.90
2018-09-29T09:22:34.409Z,68.90
2018-09-29T09:25:06.841Z,69.10
2018-09-29T09:27:37.933Z,68.90
2018-09-29T09:30:08.324Z,68.90
2018-09-29T09:32:39.466Z,69.10
2018-09-29T09:35:09.860Z,69.10
2018-09-29T09:37:40.264Z,68.30
2018-09-29T09:40:10.660Z,67.80
2018-09-29T09:42:43.114Z,67.70
2018-09-29T09:45:14.232Z,68.80
2018-09-29T09:47:44.617Z,68.70
2018-09-29T09:50:17.068Z,67.80
2018-09-29T09:52:47.461Z,67.40
2018-09-29T09:55:17.843Z,67.40
2018-09-29T09:57:48.247Z,67.50
2018-09-29T10:00:18.626Z,67.30
2018-09-29T10:02:49.013Z,66.10
2018-09-29T10:05:20.228Z,66.70
2018-09-29T10:07:51.385Z,66.70
2018-09-29T10:10:21.782Z,66.60
2018-09-29T10:12:52.185Z,66.10
2018-09-29T10:15:22.573Z,65.60
2018-09-29T10:17:52.951Z,64.60
2018-09-29T10:20:26.978Z,65.30
2018-09-29T10:22:57.352Z,67.40
2018-09-29T10:25:30.797Z,65.20
2018-09-29T10:28:02.212Z,64.80
2018-09-29T10:30:37.899Z,65.80
2018-09-29T10:33:08.315Z,64.50
2018-09-29T10:35:38.644Z,65.10
2018-09-29T10:38:09.016Z,65.00
2018-09-29T10:40:39.434Z,63.50
2018-09-29T10:43:09.814Z,64.90
2018-09-29T10:45:40.198Z,65.70
2018-09-29T10:48:13.504Z,65.50
2018-09-29T10:50:43.900Z,63.10
2018-09-29T10:53:14.461Z,63.10
2018-09-29T10:55:48.984Z,62.90
2018-09-29T10:58:20.394Z,63.60
2018-09-29T11:00:51.536Z,62.80
2018-09-29T11:03:22.657Z,61.90
2018-09-29T11:05:53.048Z,61.90
2018-09-29T11:08:25.478Z,62.20
2018-09-29T11:10:56.678Z,62.90
2018-09-29T11:13:27.058Z,62.90
2018-09-29T11:15:57.372Z,60.60
2018-09-29T11:18:28.542Z,62.80
2018-09-29T11:20:59.713Z,59.80
2018-09-29T11:23:30.009Z,59.80
2018-09-29T11:26:00.338Z,60.00
2018-09-29T11:28:30.737Z,61.70
2018-09-29T11:31:02.145Z,59.00
2018-09-29T11:33:53.726Z,59.10
2018-09-29T11:36:24.865Z,59.50
2018-09-29T11:38:56.020Z,69.90
2018-09-29T11:41:26.425Z,69.90
2018-09-29T11:43:56.810Z,64.10
2018-09-29T11:46:45.573Z,58.90
2018-09-29T11:49:15.962Z,58.70
2018-09-29T11:51:47.368Z,58.90
2018-09-29T11:54:17.771Z,59.80
2018-09-29T11:56:48.164Z,59.40
2018-09-29T11:59:20.269Z,58.60
2018-09-29T12:01:50.703Z,58.50
2018-09-29T12:04:23.744Z,59.30
2018-09-29T12:06:54.896Z,57.80
2018-09-29T12:09:25.301Z,57.80
2018-09-29T12:11:56.447Z,58.40
2018-09-29T12:14:30.402Z,58.50
2018-09-29T12:17:08.118Z,58.50
2018-09-29T12:19:39.142Z,57.90
2018-09-29T12:22:28.910Z,59.40
2018-09-29T12:24:59.302Z,56.80
2018-09-29T12:27:30.446Z,56.30
2018-09-29T12:30:01.637Z,56.60
2018-09-29T12:32:32.201Z,56.60
2018-09-29T12:35:02.580Z,56.60
2018-09-29T12:37:33.059Z,57.80
2018-09-29T12:43:01.074Z,56.00
2018-09-29T12:45:32.235Z,54.90
2018-09-29T12:48:02.862Z,54.80
2018-09-29T12:50:33.263Z,56.30
2018-09-29T12:53:03.647Z,56.10
2018-09-29T12:55:42.728Z,55.90
2018-09-29T12:58:13.873Z,55.50
2018-09-29T13:00:45.038Z,55.90
2018-09-29T13:03:15.450Z,55.80
2018-09-29T13:05:46.606Z,55.90
2018-09-29T13:08:17.003Z,55.70
2018-09-29T13:10:47.422Z,56.40
2018-09-29T13:13:17.789Z,57.70
2018-09-29T13:15:48.171Z,55.00
2018-09-29T13:18:18.572Z,53.60
2018-09-29T13:20:56.121Z,54.90
2018-09-29T13:23:27.274Z,52.80
2018-09-29T13:25:58.436Z,52.20
2018-09-29T13:28:28.819Z,52.10
2018-09-29T13:30:59.220Z,52.50
2018-09-29T13:33:51.025Z,53.20
2018-09-29T13:36:21.468Z,54.20
2018-09-29T13:39:12.004Z,54.80
2018-09-29T13:41:42.416Z,54.80
2018-09-29T13:44:12.806Z,53.40
2018-09-29T13:46:43.194Z,52.40
2018-09-29T13:49:14.413Z,54.80
2018-09-29T13:51:44.797Z,54.30
2018-09-29T13:54:15.113Z,51.30
2018-09-29T13:56:45.504Z,51.70
2018-09-29T13:59:15.890Z,55.30
2018-09-29T14:01:52.430Z,55.10
2018-09-29T14:04:23.518Z,52.90
2018-09-29T14:06:58.012Z,52.80
2018-09-29T14:09:28.413Z,51.80
2018-09-29T14:11:59.566Z,51.90
2018-09-29T14:14:30.743Z,52.20
2018-09-29T14:17:05.171Z,52.30
2018-09-29T14:19:42.733Z,53.30
2018-09-29T14:22:15.093Z,58.70
2018-09-29T14:24:46.243Z,54.10
2018-09-29T14:27:17.399Z,53.30
2018-09-29T14:29:47.789Z,53.20
2018-09-29T14:32:18.170Z,52.60
2018-09-29T14:34:50.554Z,53.80
2018-09-29T14:37:27.005Z,53.60
2018-09-29T14:39:57.349Z,53.20
2018-09-29T14:42:47.090Z,53.20
2018-09-29T14:45:17.510Z,53.10
2018-09-29T14:47:48.650Z,53.90
2018-09-29T14:50:21.628Z,53.80
2018-09-29T14:52:52.046Z,53.00
2018-09-29T14:55:23.665Z,52.20
2018-09-29T14:57:59.181Z,52.60
2018-09-29T15:00:29.518Z,53.00
2018-09-29T15:03:00.103Z,56.50
2018-09-29T15:05:30.519Z,60.30
2018-09-29T15:08:00.843Z,52.90
2018-09-29T15:10:31.259Z,51.70
2018-09-29T15:13:03.760Z,50.90
2018-09-29T15:15:34.188Z,52.20
2018-09-29T15:18:04.571Z,51.60
2018-09-29T15:20:37.677Z,50.20
2018-09-29T15:23:30.878Z,50.50
2018-09-29T15:26:02.236Z,51.10
2018-09-29T15:28:32.505Z,51.00
2018-09-29T15:31:22.286Z,52.50
2018-09-29T15:33:52.682Z,52.20
2018-09-29T15:36:24.096Z,50.90
2018-09-29T15:38:54.509Z,51.60
2018-09-29T15:41:27.788Z,56.20
2018-09-29T15:43:58.186Z,50.80
2018-09-29T15:46:28.599Z,51.90
2018-09-29T15:48:58.969Z,49.90
2018-09-29T15:51:33.446Z,50.80
2018-09-29T15:54:04.566Z,49.80
2018-09-29T15:56:38.544Z,49.70
2018-09-29T15:59:28.345Z,49.70
2018-09-29T16:04:44.689Z,51.80
2018-09-29T16:07:15.850Z,51.10
2018-09-29T16:09:46.279Z,50.70
2018-09-29T16:12:16.673Z,51.60
2018-09-29T16:14:55.275Z,51.50
2018-09-29T16:17:26.704Z,51.80
2018-09-29T16:20:03.210Z,52.70
2018-09-29T16:22:36.165Z,52.60
2018-09-29T16:25:11.297Z,53.00
2018-09-29T16:27:41.715Z,52.40
2018-09-29T16:30:12.109Z,53.40
2018-09-29T16:32:45.828Z,53.00
2018-09-29T16:35:16.255Z,53.00
2018-09-29T16:37:49.053Z,52.80
2018-09-29T16:40:19.376Z,52.40
2018-09-29T16:42:49.806Z,53.30
2018-09-29T16:45:20.123Z,53.40
2018-09-29T16:47:50.513Z,52.90
2018-09-29T16:50:20.905Z,52.70
2018-09-29T16:52:51.301Z,54.50
2018-09-29T16:55:24.456Z,54.30
2018-09-29T16:57:54.867Z,52.90
2018-09-29T17:00:31.059Z,54.10
2018-09-29T17:03:04.672Z,52.80
2018-09-29T17:05:37.874Z,52.70
2018-09-29T17:08:08.440Z,53.70
2018-09-29T17:10:42.940Z,53.20
2018-09-29T17:13:13.323Z,54.60
2018-09-29T17:15:43.669Z,54.80
2018-09-29T17:18:14.044Z,56.10
2018-09-29T17:20:47.435Z,55.00
2018-09-29T17:23:30.591Z,55.70
2018-09-29T17:26:10.026Z,57.10
2018-09-29T17:28:43.911Z,57.70
2018-09-29T17:31:16.358Z,56.10
2018-09-29T17:33:46.739Z,57.00
2018-09-29T17:36:19.836Z,57.60
2018-09-29T17:38:52.967Z,58.40
2018-09-29T17:41:34.192Z,57.90
2018-09-29T17:44:04.584Z,58.70
2018-09-29T17:46:34.981Z,59.60
2018-09-29T17:49:05.405Z,59.70
2018-09-29T17:51:37.579Z,60.80
2018-09-29T17:54:10.852Z,60.80
2018-09-29T17:56:41.431Z,60.30
2018-09-29T17:59:14.734Z,60.30
2018-09-29T18:01:45.151Z,59.00
2018-09-29T18:04:21.322Z,59.90
2018-09-29T18:06:52.454Z,60.00
2018-09-29T18:09:25.683Z,60.00
2018-09-29T18:11:58.563Z,60.20
2018-09-29T18:14:28.954Z,61.00
2018-09-29T18:17:06.076Z,61.20
2018-09-29T18:19:42.184Z,60.10
2018-09-29T18:22:19.688Z,60.30
2018-09-29T18:24:55.750Z,61.10
2018-09-29T18:27:26.095Z,61.60
2018-09-29T18:30:00.562Z,62.40
2018-09-29T18:35:22.270Z,63.30
2018-09-29T18:37:57.279Z,62.70
2018-09-29T18:40:30.183Z,63.20
2018-09-29T18:43:00.577Z,63.60
2018-09-29T18:45:33.386Z,63.80
2018-09-29T18:48:08.294Z,63.10
2018-09-29T18:50:38.614Z,63.40
2018-09-29T18:53:11.875Z,63.60
2018-09-29T18:55:42.290Z,63.40
2018-09-29T18:58:15.122Z,64.30
2018-09-29T19:00:48.225Z,65.20
2018-09-29T19:03:18.608Z,65.40
2018-09-29T19:05:49.003Z,65.40
2018-09-29T19:08:21.444Z,65.70
2018-09-29T19:10:55.554Z,65.90
2018-09-29T19:13:28.776Z,65.90
2018-09-29T19:15:59.158Z,66.40
2018-09-29T19:18:32.378Z,65.70
2018-09-29T19:21:05.682Z,65.90
2018-09-29T19:23:45.775Z,66.30
2018-09-29T19:26:16.185Z,67.20
2018-09-29T19:29:07.993Z,66.40
2018-09-29T19:31:44.388Z,66.80
2018-09-29T19:34:14.778Z,67.30
2018-09-29T19:36:45.169Z,67.50
2018-09-29T19:39:15.820Z,67.50
2018-09-29T19:41:46.209Z,67.70
2018-09-29T19:44:16.596Z,67.00
2018-09-29T19:46:49.691Z,66.10
2018-09-29T19:49:20.009Z,66.80
2018-09-29T19:51:53.082Z,67.20
2018-09-29T19:54:26.377Z,67.60
2018-09-29T19:56:59.680Z,68.10
2018-09-29T19:59:31.082Z,68.40
2018-09-29T20:02:04.175Z,67.90
2018-09-29T20:04:34.557Z,68.20
2018-09-29T20:07:08.390Z,68.70
2018-09-29T20:09:39.843Z,68.40
2018-09-29T20:12:12.691Z,68.30
2018-09-29T20:14:45.978Z,67.50
2018-09-29T20:17:16.358Z,67.60
2018-09-29T20:19:46.770Z,66.80
2018-09-29T20:22:36.195Z,68.30
2018-09-29T20:25:06.585Z,68.30
2018-09-29T20:27:42.576Z,67.50
2018-09-29T20:30:22.581Z,67.00
2018-09-29T20:32:52.954Z,66.60
2018-09-29T20:35:27.031Z,67.30
2018-09-29T20:38:03.124Z,67.30
2018-09-29T20:40:36.087Z,68.60
2018-09-29T20:43:08.156Z,68.80
2018-09-29T20:45:39.583Z,67.80
2018-09-29T20:48:29.346Z,66.50
2018-09-29T20:50:59.749Z,67.40
2018-09-29T20:53:33.522Z,68.10
2018-09-29T20:56:03.925Z,68.50
2018-09-29T20:58:34.324Z,68.60
2018-09-29T21:01:05.731Z,69.50
2018-09-29T21:03:39.101Z,69.50
2018-09-29T21:06:09.529Z,69.70
2018-09-29T21:08:40.620Z,70.20
2018-09-29T21:11:11.767Z,70.20
2018-09-29T21:13:42.201Z,70.20
2018-09-29T21:16:12.565Z,71.20
2018-09-29T21:18:43.960Z,70.50
2018-09-29T21:21:15.149Z,69.60
2018-09-29T21:23:45.543Z,69.50
2018-09-29T21:26:15.939Z,70.10
2018-09-29T21:28:46.356Z,70.80
2018-09-29T21:31:16.738Z,71.40
2018-09-29T21:33:47.123Z,71.00
2018-09-29T21:36:17.521Z,70.50
2018-09-29T21:38:55.077Z,71.60
2018-09-29T21:41:28.400Z,71.30
2018-09-29T21:44:17.884Z,71.70
2018-09-29T21:46:50.271Z,71.60
2018-09-29T21:49:20.656Z,72.00
2018-09-29T21:51:51.035Z,72.30
2018-09-29T21:54:23.967Z,72.80
2018-09-29T21:56:54.355Z,72.50
2018-09-29T21:59:24.765Z,72.40
2018-09-29T22:01:55.107Z,72.40
2018-09-29T22:04:25.532Z,72.90
2018-09-29T22:06:55.895Z,73.20
2018-09-29T22:09:26.305Z,73.20
2018-09-29T22:11:56.706Z,73.30
2018-09-29T22:14:27.112Z,73.90
2018-09-29T22:17:21.601Z,73.30
2018-09-29T22:19:56.100Z,73.90
2018-09-29T22:22:26.500Z,73.70
2018-09-29T22:24:57.672Z,74.10
2018-09-29T22:27:28.043Z,74.10
2018-09-29T22:29:58.434Z,74.10
2018-09-29T22:32:33.245Z,74.20
2018-09-29T22:35:03.616Z,74.60
2018-09-29T22:37:34.190Z,74.50
2018-09-29T22:40:04.524Z,74.40
2018-09-29T22:42:34.853Z,74.60
2018-09-29T22:45:07.284Z,74.60
2018-09-29T22:50:47.185Z,74.20
2018-09-29T22:53:18.289Z,74.40
2018-09-29T22:55:48.689Z,74.40
2018-09-29T22:58:19.080Z,74.80
2018-09-29T23:00:51.513Z,76.00
2018-09-29T23:03:21.900Z,75.50
2018-09-29T23:05:52.616Z,76.30
2018-09-29T23:08:23.805Z,76.80
2018-09-29T23:10:54.178Z,76.80
2018-09-29T23:13:25.341Z,76.00
2018-09-29T23:15:55.814Z,75.90
2018-09-29T23:18:26.144Z,76.20
2018-09-29T23:20:56.544Z,76.60
2018-09-29T23:23:28.987Z,77.10
2018-09-29T23:26:00.150Z,77.40
2018-09-29T23:28:31.258Z,77.30
2018-09-29T23:31:01.646Z,78.40
2018-09-29T23:33:53.466Z,78.20
2018-09-29T23:36:28.990Z,78.30
2018-09-29T23:38:59.309Z,78.90
2018-09-29T23:41:29.720Z,78.60
2018-09-29T23:44:00.124Z,78.80
2018-09-29T23:46:30.527Z,78.30
2018-09-29T23:49:04.002Z,78.20
2018-09-29T23:51:35.238Z,79.20
2018-09-29T23:54:05.574Z,79.10
2018-09-29T23:56:35.970Z,79.50
2018-09-29T23:59:07.330Z,80.60
